Terminal Aerodrome Forecast
Issued by NWS Missoula, MT

Home | Current Version | Previous Version | Text Only | Print | Product List | Glossary On
Versions: 1 2 3 4 5 6 7 8 9 10 11 12 13
000
FTUS45 KMSO 010538
TAFBTM
TAF
KBTM 010538Z 0106/0206 VRB05KT P6SM SKC
     FM011800 16012KT P6SM BKN100
     FM020300 30006KT P6SM VCSH OVC060=

USA.gov is the U.S. government's official web portal to all federal, state and local government web resources and services.